Time,TemperatureF,DewpointF,PressureIn,WindDirection,WindDirectionDegrees,WindSpeedMPH,WindSpeedGustMPH,Humidity,HourlyPrecipIn,Conditions,Clouds,dailyrainin,SolarRadiationWatts/m^2,SoftwareType,DateUTC
2013-03-18 00:00:00,49.4,22.0,29.67,West,277,0.0,-999.0,24,-99.99,,,0.00,0.0,cwc,2013-03-18 06:00:00,
2013-03-18 00:05:00,49.5,22.1,29.68,West,277,0.0,-999.0,24,-99.99,,,0.00,0.0,cwc,2013-03-18 06:05:00,
2013-03-18 00:10:00,48.9,21.9,29.68,West,277,0.0,-999.0,25,-99.99,,,0.00,0.0,cwc,2013-03-18 06:10:00,
2013-03-18 00:15:00,48.8,21.8,29.68,West,277,0.0,-999.0,25,-99.99,,,0.00,0.0,cwc,2013-03-18 06:15:00,
2013-03-18 00:20:00,47.7,21.1,29.68,West,277,0.0,-999.0,26,-99.99,,,0.00,0.0,cwc,2013-03-18 06:20:00,
2013-03-18 00:25:00,47.6,21.7,29.68,West,277,0.0,-999.0,28,-99.99,,,0.00,0.0,cwc,2013-03-18 06:25:00,
2013-03-18 00:30:00,45.8,19.9,29.68,West,277,0.0,-999.0,28,-99.99,,,0.00,0.0,cwc,2013-03-18 06:30:00,
2013-03-18 00:35:00,44.3,19.1,29.71,West,277,0.0,-999.0,30,-99.99,,,0.00,0.0,cwc,2013-03-18 06:35:00,
2013-03-18 00:40:00,43.2,18.4,29.71,East,82,4.0,-999.0,31,-99.99,,,0.00,0.0,cwc,2013-03-18 06:40:00,
2013-03-18 00:45:00,42.2,17.4,29.71,East,86,4.0,-999.0,31,-99.99,,,0.00,0.0,cwc,2013-03-18 06:45:00,
2013-03-18 00:50:00,41.5,17.4,29.75,ESE,104,2.0,-999.0,33,-99.99,,,0.00,0.0,cwc,2013-03-18 06:50:00,
2013-03-18 00:55:00,41.2,17.8,29.75,ESE,104,0.0,-999.0,35,-99.99,,,0.00,0.0,cwc,2013-03-18 06:55:00,
2013-03-18 01:00:00,40.6,16.8,29.75,ESE,104,4.0,-999.0,34,-99.99,,,0.00,0.0,cwc,2013-03-18 07:00:00,
2013-03-18 01:05:00,40.5,17.1,29.76,ESE,104,0.0,-999.0,35,-99.99,,,0.00,0.0,cwc,2013-03-18 07:05:00,
2013-03-18 01:10:00,39.9,16.5,29.76,ESE,104,2.0,-999.0,35,-99.99,,,0.00,0.0,cwc,2013-03-18 07:10:00,
2013-03-18 01:15:00,40.1,16.7,29.76,ESE,109,0.0,-999.0,35,-99.99,,,0.00,0.0,cwc,2013-03-18 07:15:00,
2013-03-18 01:20:00,39.6,17.3,29.72,ESE,109,0.0,-999.0,38,-99.99,,,0.00,0.0,cwc,2013-03-18 07:20:00,
2013-03-18 01:25:00,39.1,16.4,29.72,ESE,109,0.0,-999.0,37,-99.99,,,0.00,0.0,cwc,2013-03-18 07:25:00,
2013-03-18 01:30:00,38.8,16.1,29.72,ESE,109,0.0,-999.0,37,-99.99,,,0.00,0.0,cwc,2013-03-18 07:30:00,
2013-03-18 01:35:00,38.3,16.0,29.74,ESE,109,0.0,-999.0,38,-99.99,,,0.00,0.0,cwc,2013-03-18 07:35:00,
2013-03-18 01:40:00,38.0,17.5,29.74,ESE,109,2.0,-999.0,43,-99.99,,,0.00,0.0,cwc,2013-03-18 07:40:00,
2013-03-18 01:45:00,38.3,16.7,29.74,ESE,109,0.0,-999.0,40,-99.99,,,0.00,0.0,cwc,2013-03-18 07:45:00,
2013-03-18 01:50:00,37.6,16.4,29.74,ESE,109,0.0,-999.0,41,-99.99,,,0.00,0.0,cwc,2013-03-18 07:50:00,
2013-03-18 01:55:00,37.8,21.6,29.74,ESE,109,2.0,-999.0,55,-99.99,,,0.00,0.0,cwc,2013-03-18 07:55:00,
2013-03-18 02:00:00,37.0,16.1,29.74,ESE,109,0.0,-999.0,42,-99.99,,,0.00,0.0,cwc,2013-03-18 08:00:00,
2013-03-18 02:05:00,36.5,16.0,29.76,ESE,109,2.0,-999.0,43,-99.99,,,0.00,0.0,cwc,2013-03-18 08:05:00,
2013-03-18 02:10:00,36.0,15.5,29.76,ESE,109,2.0,-999.0,43,-99.99,,,0.00,0.0,cwc,2013-03-18 08:10:00,
2013-03-18 02:15:00,36.0,16.2,29.76,ESE,109,0.0,-999.0,45,-99.99,,,0.00,0.0,cwc,2013-03-18 08:15:00,
2013-03-18 02:20:00,35.8,16.7,29.74,ESE,109,0.0,-999.0,47,-99.99,,,0.00,0.0,cwc,2013-03-18 08:20:00,
2013-03-18 02:25:00,35.9,19.0,29.74,ESE,109,0.0,-999.0,53,-99.99,,,0.00,0.0,cwc,2013-03-18 08:25:00,
2013-03-18 02:30:00,35.6,15.4,29.74,ESE,109,0.0,-999.0,44,-99.99,,,0.00,0.0,cwc,2013-03-18 08:30:00,
2013-03-18 02:35:00,35.3,15.5,29.74,ESE,109,0.0,-999.0,45,-99.99,,,0.00,0.0,cwc,2013-03-18 08:35:00,
2013-03-18 02:40:00,36.9,22.9,29.74,ESE,109,0.0,-999.0,61,-99.99,,,0.00,0.0,cwc,2013-03-18 08:40:00,
2013-03-18 02:45:00,35.9,20.8,29.74,ESE,109,2.0,-999.0,58,-99.99,,,0.00,0.0,cwc,2013-03-18 08:45:00,
2013-03-18 02:50:00,35.3,16.9,29.73,ESE,109,0.0,-999.0,49,-99.99,,,0.00,0.0,cwc,2013-03-18 08:50:00,
2013-03-18 02:55:00,34.6,15.5,29.73,ESE,109,0.0,-999.0,47,-99.99,,,0.00,0.0,cwc,2013-03-18 08:55:00,
2013-03-18 03:00:00,34.4,19.3,29.73,ESE,109,1.0,-999.0,58,-99.99,,,0.00,0.0,cwc,2013-03-18 09:00:00,
2013-03-18 03:05:00,35.8,18.9,29.75,ESE,109,0.0,-999.0,53,-99.99,,,0.00,0.0,cwc,2013-03-18 09:05:00,
2013-03-18 03:10:00,34.0,15.6,29.75,ESE,109,0.0,-999.0,49,-99.99,,,0.00,0.0,cwc,2013-03-18 09:10:00,
2013-03-18 03:15:00,34.7,19.6,29.75,ESE,109,0.0,-999.0,58,-99.99,,,0.00,0.0,cwc,2013-03-18 09:15:00,
2013-03-18 03:20:00,33.5,15.5,29.75,ESE,109,4.0,-999.0,50,-99.99,,,0.00,0.0,cwc,2013-03-18 09:20:00,
2013-03-18 03:25:00,33.2,14.1,29.75,SSE,157,0.0,-999.0,47,-99.99,,,0.00,0.0,cwc,2013-03-18 09:25:00,
2013-03-18 03:30:00,33.7,16.8,29.75,SSE,157,2.0,-999.0,53,-99.99,,,0.00,0.0,cwc,2013-03-18 09:30:00,
2013-03-18 03:35:00,34.1,19.7,29.75,SSE,157,0.0,-999.0,60,-99.99,,,0.00,0.0,cwc,2013-03-18 09:35:00,
2013-03-18 03:40:00,33.1,15.8,29.75,SSE,157,0.0,-999.0,52,-99.99,,,0.00,0.0,cwc,2013-03-18 09:40:00,
2013-03-18 03:45:00,34.3,22.1,29.75,SSE,157,0.0,-999.0,66,-99.99,,,0.00,0.0,cwc,2013-03-18 09:45:00,
2013-03-18 03:50:00,34.1,22.6,29.75,SSE,157,4.0,-999.0,68,-99.99,,,0.00,0.0,cwc,2013-03-18 09:50:00,
2013-03-18 03:55:00,34.0,21.4,29.75,SSE,157,0.0,-999.0,65,-99.99,,,0.00,0.0,cwc,2013-03-18 09:55:00,
2013-03-18 04:00:00,35.8,23.2,29.75,SSE,162,0.0,-999.0,65,-99.99,,,0.00,0.0,cwc,2013-03-18 10:00:00,
2013-03-18 04:05:00,33.1,21.6,29.75,SSE,162,0.0,-999.0,68,-99.99,,,0.00,0.0,cwc,2013-03-18 10:05:00,
2013-03-18 04:10:00,32.7,16.9,29.75,SSE,162,0.0,-999.0,56,-99.99,,,0.00,0.0,cwc,2013-03-18 10:10:00,
2013-03-18 04:15:00,36.3,21.2,29.75,SSE,162,0.0,-999.0,58,-99.99,,,0.00,0.0,cwc,2013-03-18 10:15:00,
2013-03-18 04:20:00,34.7,26.1,29.74,SSE,162,0.0,-999.0,76,-99.99,,,0.00,0.0,cwc,2013-03-18 10:20:00,
2013-03-18 04:25:00,31.5,15.7,29.74,SE,137,6.0,-999.0,56,-99.99,,,0.00,0.0,cwc,2013-03-18 10:25:00,
2013-03-18 04:30:00,31.5,14.2,29.74,South,182,1.0,-999.0,52,-99.99,,,0.00,0.0,cwc,2013-03-18 10:30:00,
2013-03-18 04:35:00,30.9,14.0,29.77,South,182,0.0,-999.0,53,-99.99,,,0.00,0.0,cwc,2013-03-18 10:35:00,
2013-03-18 04:40:00,30.7,14.5,29.77,South,182,0.0,-999.0,55,-99.99,,,0.00,0.0,cwc,2013-03-18 10:40:00,
2013-03-18 04:45:00,33.2,23.1,29.77,South,182,6.0,-999.0,72,-99.99,,,0.00,0.0,cwc,2013-03-18 10:45:00,
2013-03-18 04:50:00,34.0,24.3,29.77,South,182,0.0,-999.0,73,-99.99,,,0.00,0.0,cwc,2013-03-18 10:50:00,
2013-03-18 04:55:00,34.3,24.9,29.77,South,182,0.0,-999.0,74,-99.99,,,0.00,0.0,cwc,2013-03-18 10:55:00,
2013-03-18 05:00:00,33.2,24.2,29.77,South,182,0.0,-999.0,75,-99.99,,,0.00,0.0,cwc,2013-03-18 11:00:00,
2013-03-18 05:05:00,32.7,20.5,29.76,South,182,0.0,-999.0,66,-99.99,,,0.00,0.0,cwc,2013-03-18 11:05:00,
2013-03-18 05:10:00,32.4,20.9,29.76,South,182,0.0,-999.0,68,-99.99,,,0.00,0.0,cwc,2013-03-18 11:10:00,
2013-03-18 05:15:00,33.4,23.3,29.76,South,182,0.0,-999.0,72,-99.99,,,0.00,0.0,cwc,2013-03-18 11:15:00,
2013-03-18 05:20:00,32.4,23.4,29.78,South,182,0.0,-999.0,75,-99.99,,,0.00,0.0,cwc,2013-03-18 11:20:00,
2013-03-18 05:25:00,33.2,24.6,29.78,South,182,0.0,-999.0,76,-99.99,,,0.00,0.0,cwc,2013-03-18 11:25:00,
2013-03-18 05:30:00,30.7,17.4,29.78,South,182,0.0,-999.0,63,-99.99,,,0.00,0.0,cwc,2013-03-18 11:30:00,
2013-03-18 05:40:00,35.6,6.8,29.75,South,182,0.0,-999.0,20,-99.99,,,0.00,0.0,cwc,2013-03-18 11:40:00,
2013-03-18 05:45:00,33.5,5.8,29.75,South,182,0.0,-999.0,23,-99.99,,,0.00,0.0,cwc,2013-03-18 11:45:00,
2013-03-18 05:50:00,31.5,23.6,29.78,South,182,0.0,-999.0,78,-99.99,,,0.00,0.0,cwc,2013-03-18 11:50:00,
2013-03-18 05:55:00,29.7,16.7,29.78,South,182,0.0,-999.0,64,-99.99,,,0.00,0.0,cwc,2013-03-18 11:55:00,
2013-03-18 06:00:00,29.7,18.2,29.78,South,182,0.0,-999.0,68,-99.99,,,0.00,0.0,cwc,2013-03-18 12:00:00,
2013-03-18 06:05:00,32.5,32.5,29.80,South,182,0.0,-999.0,100,-99.99,,,0.00,0.0,cwc,2013-03-18 12:05:00,
2013-03-18 06:10:00,31.5,31.5,29.80,South,182,2.0,-999.0,100,-99.99,,,0.00,0.0,cwc,2013-03-18 12:10:00,
2013-03-18 06:15:00,34.1,34.1,29.80,South,182,0.0,-999.0,100,-99.99,,,0.00,0.0,cwc,2013-03-18 12:15:00,
2013-03-18 06:25:00,29.4,29.4,29.79,South,182,0.0,-999.0,100,-99.99,,,0.00,0.0,cwc,2013-03-18 12:25:00,
2013-03-18 06:30:00,29.0,29.0,29.79,South,182,0.0,-999.0,100,-99.99,,,0.00,0.0,cwc,2013-03-18 12:30:00,
2013-03-18 06:40:00,29.0,29.0,29.83,East,82,6.0,-999.0,100,-99.99,,,0.00,0.0,cwc,2013-03-18 12:40:00,
2013-03-18 06:45:00,31.2,31.2,29.83,East,82,0.0,-999.0,100,-99.99,,,0.00,0.0,cwc,2013-03-18 12:45:00,
2013-03-18 06:50:00,30.1,30.1,29.78,East,82,1.0,-999.0,100,-99.99,,,0.00,0.0,cwc,2013-03-18 12:50:00,
2013-03-18 06:55:00,29.7,18.2,29.78,East,82,0.0,-999.0,68,-99.99,,,0.00,0.0,cwc,2013-03-18 12:55:00,
2013-03-18 07:00:00,31.6,20.1,29.78,East,82,0.0,-999.0,68,-99.99,,,0.00,0.0,cwc,2013-03-18 13:00:00,
2013-03-18 07:05:00,35.5,11.4,29.81,East,82,0.0,-999.0,33,-99.99,,,0.00,0.0,cwc,2013-03-18 13:05:00,
2013-03-18 07:10:00,32.9,10.9,29.81,East,82,0.0,-999.0,39,-99.99,,,0.00,0.0,cwc,2013-03-18 13:10:00,
2013-03-18 07:15:00,32.9,26.4,29.81,East,82,0.0,-999.0,82,-99.99,,,0.00,0.0,cwc,2013-03-18 13:15:00,
2013-03-18 07:20:00,31.2,24.7,29.85,East,82,0.0,-999.0,82,-99.99,,,0.00,0.0,cwc,2013-03-18 13:20:00,
2013-03-18 07:25:00,32.8,26.0,29.85,East,82,0.0,-999.0,81,-99.99,,,0.00,0.0,cwc,2013-03-18 13:25:00,
2013-03-18 07:30:00,32.7,17.6,29.85,East,80,0.0,-999.0,58,-99.99,,,0.00,0.0,cwc,2013-03-18 13:30:00,
2013-03-18 07:35:00,41.8,5.8,29.85,East,80,0.0,-999.0,0,-99.99,,,0.00,0.0,cwc,2013-03-18 13:35:00,
2013-03-18 07:40:00,33.5,1.1,29.85,East,80,0.0,-999.0,10,-99.99,,,0.00,0.0,cwc,2013-03-18 13:40:00,
2013-03-18 07:45:00,30.6,22.3,29.85,East,80,0.0,-999.0,77,-99.99,,,0.00,0.0,cwc,2013-03-18 13:45:00,
2013-03-18 07:50:00,31.5,-4.5,29.84,East,80,0.0,-999.0,0,-99.99,,,0.00,0.0,cwc,2013-03-18 13:50:00,
2013-03-18 07:55:00,31.3,-4.7,29.84,East,80,0.0,-999.0,0,-99.99,,,0.00,0.0,cwc,2013-03-18 13:55:00,
2013-03-18 08:00:00,35.2,-0.8,29.84,East,80,0.0,-999.0,0,-99.99,,,0.00,0.0,cwc,2013-03-18 14:00:00,
2013-03-18 08:05:00,36.9,36.9,29.86,East,80,0.0,-999.0,100,-99.99,,,0.00,0.0,cwc,2013-03-18 14:05:00,
2013-03-18 08:10:00,34.1,-1.9,29.86,East,80,0.0,-999.0,0,-99.99,,,0.00,0.0,cwc,2013-03-18 14:10:00,
2013-03-18 08:15:00,34.1,-1.9,29.86,East,80,0.0,-999.0,0,-99.99,,,0.00,0.0,cwc,2013-03-18 14:15:00,
2013-03-18 08:20:00,33.2,-2.8,29.89,East,80,4.0,-999.0,0,-99.99,,,0.00,0.0,cwc,2013-03-18 14:20:00,
2013-03-18 08:25:00,35.6,-0.4,29.89,East,80,0.0,-999.0,0,-99.99,,,0.00,0.0,cwc,2013-03-18 14:25:00,
2013-03-18 08:30:00,34.9,-1.1,29.89,East,80,0.0,-999.0,0,-99.99,,,0.00,0.0,cwc,2013-03-18 14:30:00,
2013-03-18 08:35:00,34.9,18.3,29.89,East,80,0.0,-999.0,54,-99.99,,,0.00,0.0,cwc,2013-03-18 14:35:00,
2013-03-18 08:40:00,38.2,25.2,29.89,East,80,0.0,-999.0,64,-99.99,,,0.00,0.0,cwc,2013-03-18 14:40:00,
2013-03-18 08:45:00,38.5,27.7,29.89,East,80,0.0,-999.0,70,-99.99,,,0.00,0.0,cwc,2013-03-18 14:45:00,
2013-03-18 08:50:00,37.5,19.5,29.85,East,80,0.0,-999.0,50,-99.99,,,0.00,0.0,cwc,2013-03-18 14:50:00,
2013-03-18 08:55:00,38.6,19.2,29.85,East,80,0.0,-999.0,46,-99.99,,,0.00,0.0,cwc,2013-03-18 14:55:00,
2013-03-18 09:00:00,39.2,18.3,29.85,East,80,0.0,-999.0,42,-99.99,,,0.00,0.0,cwc,2013-03-18 15:00:00,
2013-03-18 09:05:00,40.2,18.6,29.85,East,80,0.0,-999.0,40,-99.99,,,0.00,0.0,cwc,2013-03-18 15:05:00,
2013-03-18 09:10:00,40.2,18.6,29.85,East,80,0.0,-999.0,40,-99.99,,,0.00,0.0,cwc,2013-03-18 15:10:00,
2013-03-18 09:15:00,41.2,18.5,29.85,East,80,0.0,-999.0,37,-99.99,,,0.00,0.0,cwc,2013-03-18 15:15:00,
2013-03-18 09:20:00,41.9,18.9,29.86,East,79,1.0,-999.0,36,-99.99,,,0.00,0.0,cwc,2013-03-18 15:20:00,
2013-03-18 09:25:00,42.5,18.7,29.86,East,79,0.0,-999.0,34,-99.99,,,0.00,0.0,cwc,2013-03-18 15:25:00,
2013-03-18 09:30:00,43.9,19.4,29.86,North,349,4.0,-999.0,32,-99.99,,,0.00,0.0,cwc,2013-03-18 15:30:00,
2013-03-18 09:35:00,44.6,18.7,29.83,North,349,0.0,-999.0,28,-99.99,,,0.00,0.0,cwc,2013-03-18 15:35:00,
2013-03-18 09:40:00,45.7,19.4,29.83,North,349,2.0,-999.0,27,-99.99,,,0.00,0.0,cwc,2013-03-18 15:40:00,
2013-03-18 09:45:00,46.5,19.5,29.83,NW,315,4.0,-999.0,25,-99.99,,,0.00,0.0,cwc,2013-03-18 15:45:00,
2013-03-18 09:50:00,48.2,19.8,29.82,WSW,240,13.0,-999.0,21,-99.99,,,0.00,0.0,cwc,2013-03-18 15:50:00,
2013-03-18 09:55:00,48.8,19.6,29.82,WSW,240,8.0,-999.0,19,-99.99,,,0.00,0.0,cwc,2013-03-18 15:55:00,
2013-03-18 10:00:00,49.5,20.7,29.82,West,277,4.0,-999.0,20,-99.99,,,0.00,0.0,cwc,2013-03-18 16:00:00,
2013-03-18 10:05:00,49.6,20.4,29.80,WNW,282,9.0,-999.0,19,-99.99,,,0.00,0.0,cwc,2013-03-18 16:05:00,
2013-03-18 10:10:00,49.6,20.8,29.80,SW,232,10.0,-999.0,20,-99.99,,,0.00,0.0,cwc,2013-03-18 16:10:00,
2013-03-18 10:15:00,50.8,21.3,29.80,West,267,6.0,-999.0,18,-99.99,,,0.00,0.0,cwc,2013-03-18 16:15:00,
2013-03-18 10:20:00,50.8,21.3,29.80,WNW,291,4.0,-999.0,18,-99.99,,,0.00,0.0,cwc,2013-03-18 16:20:00,
2013-03-18 10:25:00,50.8,21.6,29.80,West,280,8.0,-999.0,19,-99.99,,,0.00,0.0,cwc,2013-03-18 16:25:00,
2013-03-18 10:30:00,50.5,21.0,29.80,NW,305,13.0,-999.0,18,-99.99,,,0.00,0.0,cwc,2013-03-18 16:30:00,
2013-03-18 10:35:00,50.7,21.2,29.80,West,272,8.0,-999.0,18,-99.99,,,0.00,0.0,cwc,2013-03-18 16:35:00,
2013-03-18 10:40:00,51.3,22.1,29.80,WSW,243,4.0,-999.0,19,-99.99,,,0.00,0.0,cwc,2013-03-18 16:40:00,
2013-03-18 10:45:00,51.3,21.8,29.80,WNW,282,7.0,-999.0,18,-99.99,,,0.00,0.0,cwc,2013-03-18 16:45:00,
2013-03-18 10:50:00,51.1,21.9,29.80,NW,312,15.0,-999.0,19,-99.99,,,0.00,0.0,cwc,2013-03-18 16:50:00,
2013-03-18 10:55:00,51.6,22.4,29.80,WNW,285,2.0,-999.0,19,-99.99,,,0.00,0.0,cwc,2013-03-18 16:55:00,
2013-03-18 11:00:00,52.3,22.4,29.80,West,271,8.0,-999.0,17,-99.99,,,0.00,0.0,cwc,2013-03-18 17:00:00,
2013-03-18 11:05:00,52.2,22.0,29.81,West,277,10.0,-999.0,16,-99.99,,,0.00,0.0,cwc,2013-03-18 17:05:00,
2013-03-18 11:10:00,53.3,23.8,29.81,WNW,295,0.0,-999.0,18,-99.99,,,0.00,0.0,cwc,2013-03-18 17:10:00,
2013-03-18 11:15:00,53.2,23.3,29.81,WNW,301,8.0,-999.0,17,-99.99,,,0.00,0.0,cwc,2013-03-18 17:15:00,
2013-03-18 11:20:00,53.5,23.3,29.79,NW,326,8.0,-999.0,16,-99.99,,,0.00,0.0,cwc,2013-03-18 17:20:00,
2013-03-18 11:25:00,53.9,23.7,29.79,NW,326,14.0,-999.0,16,-99.99,,,0.00,0.0,cwc,2013-03-18 17:25:00,
2013-03-18 11:30:00,54.1,23.9,29.79,NNW,328,10.0,-999.0,16,-99.99,,,0.00,0.0,cwc,2013-03-18 17:30:00,
2013-03-18 11:35:00,54.5,24.3,29.79,WNW,289,10.0,-999.0,16,-99.99,,,0.00,0.0,cwc,2013-03-18 17:35:00,
2013-03-18 11:40:00,54.4,24.2,29.79,West,270,9.0,-999.0,16,-99.99,,,0.00,0.0,cwc,2013-03-18 17:40:00,
2013-03-18 11:45:00,54.2,24.0,29.79,West,281,6.0,-999.0,16,-99.99,,,0.00,0.0,cwc,2013-03-18 17:45:00,
2013-03-18 11:50:00,54.4,24.2,29.79,NW,320,11.0,-999.0,16,-99.99,,,0.00,0.0,cwc,2013-03-18 17:50:00,
2013-03-18 11:55:00,55.1,24.5,29.79,NW,319,11.0,-999.0,15,-99.99,,,0.00,0.0,cwc,2013-03-18 17:55:00,
2013-03-18 12:00:00,54.7,24.1,29.79,NNW,328,7.0,-999.0,15,-99.99,,,0.00,0.0,cwc,2013-03-18 18:00:00,
2013-03-18 12:10:00,54.4,23.4,29.77,West,277,9.0,-999.0,14,-99.99,,,0.00,0.0,cwc,2013-03-18 18:10:00,
2013-03-18 12:15:00,54.7,23.7,29.77,WSW,256,13.0,-999.0,14,-99.99,,,0.00,0.0,cwc,2013-03-18 18:15:00,
2013-03-18 12:20:00,55.4,24.8,29.83,WNW,302,16.0,-999.0,15,-99.99,,,0.00,0.0,cwc,2013-03-18 18:20:00,
2013-03-18 12:25:00,55.9,24.6,29.83,NW,313,8.0,-999.0,13,-99.99,,,0.00,0.0,cwc,2013-03-18 18:25:00,
2013-03-18 12:30:00,56.3,25.0,29.83,West,278,6.0,-999.0,13,-99.99,,,0.00,0.0,cwc,2013-03-18 18:30:00,
2013-03-18 12:35:00,56.6,25.6,29.81,SW,229,8.0,-999.0,14,-99.99,,,0.00,0.0,cwc,2013-03-18 18:35:00,
2013-03-18 12:40:00,57.0,25.7,29.81,NW,311,13.0,-999.0,13,-99.99,,,0.00,0.0,cwc,2013-03-18 18:40:00,
2013-03-18 12:45:00,56.2,24.9,29.81,NW,315,11.0,-999.0,13,-99.99,,,0.00,0.0,cwc,2013-03-18 18:45:00,
2013-03-18 12:50:00,56.7,25.0,29.82,NW,313,8.0,-999.0,12,-99.99,,,0.00,0.0,cwc,2013-03-18 18:50:00,
2013-03-18 12:55:00,56.5,24.8,29.82,NW,312,11.0,-999.0,12,-99.99,,,0.00,0.0,cwc,2013-03-18 18:55:00,
2013-03-18 13:00:00,56.7,25.4,29.82,WNW,298,6.0,-999.0,13,-99.99,,,0.00,0.0,cwc,2013-03-18 19:00:00,
2013-03-18 13:05:00,56.0,24.7,29.80,NNW,335,4.0,-999.0,13,-99.99,,,0.00,0.0,cwc,2013-03-18 19:05:00,
2013-03-18 13:10:00,57.0,25.7,29.80,NW,308,10.0,-999.0,13,-99.99,,,0.00,0.0,cwc,2013-03-18 19:10:00,
2013-03-18 13:15:00,56.5,25.2,29.80,NW,316,11.0,-999.0,13,-99.99,,,0.00,0.0,cwc,2013-03-18 19:15:00,
2013-03-18 13:20:00,56.6,25.3,29.82,NNW,330,16.0,-999.0,13,-99.99,,,0.00,0.0,cwc,2013-03-18 19:20:00,
2013-03-18 13:25:00,56.9,25.2,29.82,WNW,294,14.0,-999.0,12,-99.99,,,0.00,0.0,cwc,2013-03-18 19:25:00,
2013-03-18 13:30:00,57.6,25.6,29.82,WSW,247,7.0,-999.0,11,-99.99,,,0.00,0.0,cwc,2013-03-18 19:30:00,
2013-03-18 13:35:00,57.6,25.9,29.82,NW,305,10.0,-999.0,12,-99.99,,,0.00,0.0,cwc,2013-03-18 19:35:00,
2013-03-18 13:40:00,58.0,26.0,29.82,NW,305,11.0,-999.0,11,-99.99,,,0.00,0.0,cwc,2013-03-18 19:40:00,
2013-03-18 13:45:00,58.3,26.3,29.82,West,265,6.0,-999.0,11,-99.99,,,0.00,0.0,cwc,2013-03-18 19:45:00,
2013-03-18 13:50:00,58.9,26.9,29.81,NW,304,10.0,-999.0,11,-99.99,,,0.00,0.0,cwc,2013-03-18 19:50:00,
2013-03-18 13:55:00,58.7,26.7,29.81,NW,312,8.0,-999.0,11,-99.99,,,0.00,0.0,cwc,2013-03-18 19:55:00,
2013-03-18 14:05:00,58.3,26.3,29.81,West,265,11.0,-999.0,11,-99.99,,,0.00,0.0,cwc,2013-03-18 20:05:00,
2013-03-18 14:10:00,58.3,26.3,29.81,WNW,301,18.0,-999.0,11,-99.99,,,0.00,0.0,cwc,2013-03-18 20:10:00,
2013-03-18 14:15:00,58.7,26.3,29.81,SW,233,15.0,-999.0,10,-99.99,,,0.00,0.0,cwc,2013-03-18 20:15:00,
2013-03-18 14:20:00,58.4,26.0,29.79,NW,323,7.0,-999.0,10,-99.99,,,0.00,0.0,cwc,2013-03-18 20:20:00,
2013-03-18 14:25:00,59.0,27.0,29.79,NW,326,14.0,-999.0,11,-99.99,,,0.00,0.0,cwc,2013-03-18 20:25:00,
2013-03-18 14:30:00,59.5,27.5,29.79,West,275,11.0,-999.0,11,-99.99,,,0.00,0.0,cwc,2013-03-18 20:30:00,
2013-03-18 14:35:00,59.2,26.8,29.78,West,277,9.0,-999.0,10,-99.99,,,0.00,0.0,cwc,2013-03-18 20:35:00,
2013-03-18 14:40:00,59.0,26.6,29.78,West,267,13.0,-999.0,10,-99.99,,,0.00,0.0,cwc,2013-03-18 20:40:00,
2013-03-18 14:45:00,58.9,26.5,29.78,WNW,284,13.0,-999.0,10,-99.99,,,0.00,0.0,cwc,2013-03-18 20:45:00,
2013-03-18 14:50:00,59.6,27.2,29.78,WNW,292,13.0,-999.0,10,-99.99,,,0.00,0.0,cwc,2013-03-18 20:50:00,
2013-03-18 14:55:00,59.5,27.1,29.78,WNW,284,11.0,-999.0,10,-99.99,,,0.00,0.0,cwc,2013-03-18 20:55:00,
2013-03-18 15:00:00,59.6,27.2,29.78,West,274,6.0,-999.0,10,-99.99,,,0.00,0.0,cwc,2013-03-18 21:00:00,
2013-03-18 15:05:00,59.0,26.6,29.77,West,260,8.0,-999.0,10,-99.99,,,0.00,0.0,cwc,2013-03-18 21:05:00,
2013-03-18 15:10:00,59.2,26.8,29.77,West,272,9.0,-999.0,10,-99.99,,,0.00,0.0,cwc,2013-03-18 21:10:00,
2013-03-18 15:15:00,58.6,26.2,29.77,WSW,253,17.0,-999.0,10,-99.99,,,0.00,0.0,cwc,2013-03-18 21:15:00,
2013-03-18 15:20:00,59.6,27.2,29.80,SW,226,13.0,-999.0,10,-99.99,,,0.00,0.0,cwc,2013-03-18 21:20:00,
2013-03-18 15:25:00,59.2,26.8,29.80,WNW,298,10.0,-999.0,10,-99.99,,,0.00,0.0,cwc,2013-03-18 21:25:00,
2013-03-18 15:30:00,59.0,27.0,29.80,WNW,288,7.0,-999.0,11,-99.99,,,0.00,0.0,cwc,2013-03-18 21:30:00,
2013-03-18 15:35:00,58.6,26.2,29.79,SW,224,11.0,-999.0,10,-99.99,,,0.00,0.0,cwc,2013-03-18 21:35:00,
2013-03-18 15:40:00,59.2,26.8,29.79,WNW,294,8.0,-999.0,10,-99.99,,,0.00,0.0,cwc,2013-03-18 21:40:00,
2013-03-18 15:45:00,59.2,26.8,29.79,NNW,344,11.0,-999.0,10,-99.99,,,0.00,0.0,cwc,2013-03-18 21:45:00,
2013-03-18 15:50:00,59.0,26.2,29.78,West,271,7.0,-999.0,9,-99.99,,,0.00,0.0,cwc,2013-03-18 21:50:00,
2013-03-18 15:55:00,59.3,26.5,29.78,WSW,248,15.0,-999.0,9,-99.99,,,0.00,0.0,cwc,2013-03-18 21:55:00,
2013-03-18 16:00:00,58.6,25.8,29.78,WNW,284,15.0,-999.0,9,-99.99,,,0.00,0.0,cwc,2013-03-18 22:00:00,
2013-03-18 16:05:00,59.2,26.4,29.79,West,271,8.0,-999.0,9,-99.99,,,0.00,0.0,cwc,2013-03-18 22:05:00,
2013-03-18 16:10:00,58.3,25.5,29.79,WSW,251,21.0,-999.0,9,-99.99,,,0.00,0.0,cwc,2013-03-18 22:10:00,
2013-03-18 16:15:00,58.7,25.9,29.79,West,271,7.0,-999.0,9,-99.99,,,0.00,0.0,cwc,2013-03-18 22:15:00,
2013-03-18 16:20:00,59.6,26.8,29.80,West,280,8.0,-999.0,9,-99.99,,,0.00,0.0,cwc,2013-03-18 22:20:00,
2013-03-18 16:25:00,59.5,26.7,29.80,West,278,10.0,-999.0,9,-99.99,,,0.00,0.0,cwc,2013-03-18 22:25:00,
2013-03-18 16:30:00,58.9,25.8,29.80,WNW,294,11.0,-999.0,8,-99.99,,,0.00,0.0,cwc,2013-03-18 22:30:00,
2013-03-18 16:35:00,59.3,26.2,29.80,WSW,244,11.0,-999.0,8,-99.99,,,0.00,0.0,cwc,2013-03-18 22:35:00,
2013-03-18 16:40:00,58.7,26.3,29.80,WNW,282,9.0,-999.0,10,-99.99,,,0.00,0.0,cwc,2013-03-18 22:40:00,
2013-03-18 16:45:00,58.4,26.0,29.80,WSW,244,17.0,-999.0,10,-99.99,,,0.00,0.0,cwc,2013-03-18 22:45:00,
2013-03-18 16:50:00,58.4,25.6,29.80,WSW,243,15.0,-999.0,9,-99.99,,,0.00,0.0,cwc,2013-03-18 22:50:00,
2013-03-18 16:55:00,58.4,26.0,29.80,WNW,295,9.0,-999.0,10,-99.99,,,0.00,0.0,cwc,2013-03-18 22:55:00,
2013-03-18 17:00:00,58.0,25.2,29.80,West,271,16.0,-999.0,9,-99.99,,,0.00,0.0,cwc,2013-03-18 23:00:00,
2013-03-18 17:05:00,58.4,25.6,29.81,NW,309,11.0,-999.0,9,-99.99,,,0.00,0.0,cwc,2013-03-18 23:05:00,
2013-03-18 17:10:00,58.4,26.0,29.81,West,271,16.0,-999.0,10,-99.99,,,0.00,0.0,cwc,2013-03-18 23:10:00,
2013-03-18 17:15:00,58.3,25.2,29.81,NW,318,11.0,-999.0,8,-99.99,,,0.00,0.0,cwc,2013-03-18 23:15:00,
2013-03-18 17:20:00,58.3,25.5,29.80,West,274,9.0,-999.0,9,-99.99,,,0.00,0.0,cwc,2013-03-18 23:20:00,
2013-03-18 17:25:00,58.3,25.5,29.80,West,280,8.0,-999.0,9,-99.99,,,0.00,0.0,cwc,2013-03-18 23:25:00,
2013-03-18 17:30:00,58.0,25.2,29.80,West,263,13.0,-999.0,9,-99.99,,,0.00,0.0,cwc,2013-03-18 23:30:00,
2013-03-18 17:35:00,57.8,25.0,29.79,WNW,289,8.0,-999.0,9,-99.99,,,0.00,0.0,cwc,2013-03-18 23:35:00,
2013-03-18 17:40:00,57.8,25.0,29.79,WSW,258,10.0,-999.0,9,-99.99,,,0.00,0.0,cwc,2013-03-18 23:40:00,
2013-03-18 17:45:00,57.3,24.2,29.79,NW,312,10.0,-999.0,8,-99.99,,,0.00,0.0,cwc,2013-03-18 23:45:00,
2013-03-18 17:50:00,57.0,23.9,29.80,WNW,289,11.0,-999.0,8,-99.99,,,0.00,0.0,cwc,2013-03-18 23:50:00,
2013-03-18 17:55:00,56.7,23.9,29.80,NNW,329,15.0,-999.0,9,-99.99,,,0.00,0.0,cwc,2013-03-18 23:55:00,
2013-03-18 18:00:00,56.7,23.9,29.80,WSW,251,6.0,-999.0,9,-99.99,,,0.00,0.0,cwc,2013-03-19 00:00:00,
2013-03-18 18:05:00,56.7,23.9,29.80,West,274,8.0,-999.0,9,-99.99,,,0.00,0.0,cwc,2013-03-19 00:05:00,
2013-03-18 18:10:00,56.3,23.5,29.80,West,264,10.0,-999.0,9,-99.99,,,0.00,0.0,cwc,2013-03-19 00:10:00,
2013-03-18 18:15:00,56.0,23.2,29.80,WSW,251,9.0,-999.0,9,-99.99,,,0.00,0.0,cwc,2013-03-19 00:15:00,
2013-03-18 18:20:00,56.0,23.2,29.81,WNW,302,11.0,-999.0,9,-99.99,,,0.00,0.0,cwc,2013-03-19 00:20:00,
2013-03-18 18:25:00,55.7,22.9,29.81,NW,304,9.0,-999.0,9,-99.99,,,0.00,0.0,cwc,2013-03-19 00:25:00,
2013-03-18 18:30:00,55.6,22.8,29.81,WNW,285,7.0,-999.0,9,-99.99,,,0.00,0.0,cwc,2013-03-19 00:30:00,
2013-03-18 18:35:00,55.0,22.2,29.82,NW,313,8.0,-999.0,9,-99.99,,,0.00,0.0,cwc,2013-03-19 00:35:00,
2013-03-18 18:40:00,54.8,22.0,29.82,WNW,292,11.0,-999.0,9,-99.99,,,0.00,0.0,cwc,2013-03-19 00:40:00,
2013-03-18 18:45:00,54.7,22.3,29.82,NW,306,15.0,-999.0,10,-99.99,,,0.00,0.0,cwc,2013-03-19 00:45:00,
2013-03-18 18:50:00,54.5,22.1,29.84,West,268,7.0,-999.0,10,-99.99,,,0.00,0.0,cwc,2013-03-19 00:50:00,
2013-03-18 18:55:00,54.4,22.4,29.84,SW,217,14.0,-999.0,11,-99.99,,,0.00,0.0,cwc,2013-03-19 00:55:00,
2013-03-18 19:00:00,54.1,22.1,29.84,WSW,248,8.0,-999.0,11,-99.99,,,0.00,0.0,cwc,2013-03-19 01:00:00,
2013-03-18 19:05:00,54.1,22.1,29.85,SW,234,10.0,-999.0,11,-99.99,,,0.00,0.0,cwc,2013-03-19 01:05:00,
2013-03-18 19:10:00,53.8,21.4,29.85,WSW,247,11.0,-999.0,10,-99.99,,,0.00,0.0,cwc,2013-03-19 01:10:00,
2013-03-18 19:15:00,53.6,21.2,29.85,West,274,8.0,-999.0,10,-99.99,,,0.00,0.0,cwc,2013-03-19 01:15:00,
2013-03-18 19:20:00,53.5,21.1,29.84,West,265,6.0,-999.0,10,-99.99,,,0.00,0.0,cwc,2013-03-19 01:20:00,
2013-03-18 19:25:00,53.5,21.5,29.84,West,272,6.0,-999.0,11,-99.99,,,0.00,0.0,cwc,2013-03-19 01:25:00,
2013-03-18 19:35:00,53.1,21.4,29.86,WNW,282,9.0,-999.0,12,-99.99,,,0.00,0.0,cwc,2013-03-19 01:35:00,
2013-03-18 19:40:00,52.9,20.9,29.86,West,278,7.0,-999.0,11,-99.99,,,0.00,0.0,cwc,2013-03-19 01:40:00,
2013-03-18 19:45:00,52.5,20.8,29.86,SW,233,13.0,-999.0,12,-99.99,,,0.00,0.0,cwc,2013-03-19 01:45:00,
2013-03-18 19:50:00,52.3,20.6,29.86,WSW,239,6.0,-999.0,12,-99.99,,,0.00,0.0,cwc,2013-03-19 01:50:00,
2013-03-18 19:55:00,52.3,20.3,29.86,WSW,240,4.0,-999.0,11,-99.99,,,0.00,0.0,cwc,2013-03-19 01:55:00,
2013-03-18 20:00:00,52.2,20.5,29.86,WSW,256,6.0,-999.0,12,-99.99,,,0.00,0.0,cwc,2013-03-19 02:00:00,
2013-03-18 20:05:00,51.7,19.7,29.87,SW,233,6.0,-999.0,11,-99.99,,,0.00,0.0,cwc,2013-03-19 02:05:00,
2013-03-18 20:10:00,52.0,20.7,29.87,SW,234,10.0,-999.0,13,-99.99,,,0.00,0.0,cwc,2013-03-19 02:10:00,
2013-03-18 20:15:00,51.7,19.7,29.87,WSW,246,7.0,-999.0,11,-99.99,,,0.00,0.0,cwc,2013-03-19 02:15:00,
2013-03-18 20:20:00,51.7,19.7,29.86,West,263,8.0,-999.0,11,-99.99,,,0.00,0.0,cwc,2013-03-19 02:20:00,
2013-03-18 20:25:00,51.6,19.6,29.86,WSW,254,8.0,-999.0,11,-99.99,,,0.00,0.0,cwc,2013-03-19 02:25:00,
2013-03-18 20:30:00,51.3,18.9,29.86,SW,229,4.0,-999.0,10,-99.99,,,0.00,0.0,cwc,2013-03-19 02:30:00,
2013-03-18 20:35:00,50.8,18.8,29.87,WSW,247,7.0,-999.0,11,-99.99,,,0.00,0.0,cwc,2013-03-19 02:35:00,
2013-03-18 20:40:00,50.8,18.8,29.87,SW,232,2.0,-999.0,11,-99.99,,,0.00,0.0,cwc,2013-03-19 02:40:00,
2013-03-18 20:45:00,50.7,18.7,29.87,SW,233,0.0,-999.0,11,-99.99,,,0.00,0.0,cwc,2013-03-19 02:45:00,
2013-03-18 20:50:00,50.7,19.4,29.87,SW,233,4.0,-999.0,13,-99.99,,,0.00,0.0,cwc,2013-03-19 02:50:00,
2013-03-18 20:55:00,50.4,18.4,29.87,SW,224,4.0,-999.0,11,-99.99,,,0.00,0.0,cwc,2013-03-19 02:55:00,
2013-03-18 21:00:00,50.5,18.8,29.87,SW,224,0.0,-999.0,12,-99.99,,,0.00,0.0,cwc,2013-03-19 03:00:00,